sensor_id;sensor_type;location;lat;lon;timestamp;P1;durP1;ratioP1;P2;durP2;ratioP2
45812;SDS011;31519;45.408;10.962;2022-07-29T00:02:07;3.13;;;1.73;;
45812;SDS011;31519;45.408;10.962;2022-07-29T00:04:36;6.45;;;1.65;;
45812;SDS011;31519;45.408;10.962;2022-07-29T00:07:04;3.53;;;1.80;;
45812;SDS011;31519;45.408;10.962;2022-07-29T00:09:33;1.52;;;1.42;;
45812;SDS011;31519;45.408;10.962;2022-07-29T00:12:21;2.92;;;1.65;;
45812;SDS011;31519;45.408;10.962;2022-07-29T00:14:54;4.05;;;1.63;;
45812;SDS011;31519;45.408;10.962;2022-07-29T00:17:23;4.78;;;1.48;;
45812;SDS011;31519;45.408;10.962;2022-07-29T00:19:52;3.13;;;1.98;;
45812;SDS011;31519;45.408;10.962;2022-07-29T00:22:21;5.05;;;1.92;;
45812;SDS011;31519;45.408;10.962;2022-07-29T00:24:49;1.67;;;1.38;;
45812;SDS011;31519;45.408;10.962;2022-07-29T00:27:18;6.72;;;1.50;;
45812;SDS011;31519;45.408;10.962;2022-07-29T00:29:46;3.80;;;1.67;;
45812;SDS011;31519;45.408;10.962;2022-07-29T00:32:15;6.43;;;1.65;;
45812;SDS011;31519;45.408;10.962;2022-07-29T00:34:43;6.53;;;1.77;;
45812;SDS011;31519;45.408;10.962;2022-07-29T00:37:30;5.68;;;2.20;;
45812;SDS011;31519;45.408;10.962;2022-07-29T00:39:58;1.70;;;1.60;;
45812;SDS011;31519;45.408;10.962;2022-07-29T00:42:26;3.47;;;1.92;;
45812;SDS011;31519;45.408;10.962;2022-07-29T00:44:55;1.00;;;1.00;;
45812;SDS011;31519;45.408;10.962;2022-07-29T00:47:23;4.78;;;1.83;;
45812;SDS011;31519;45.408;10.962;2022-07-29T00:49:51;6.47;;;1.58;;
45812;SDS011;31519;45.408;10.962;2022-07-29T00:52:20;4.68;;;1.67;;
45812;SDS011;31519;45.408;10.962;2022-07-29T00:54:48;3.58;;;1.80;;
45812;SDS011;31519;45.408;10.962;2022-07-29T00:57:16;3.30;;;1.98;;
45812;SDS011;31519;45.408;10.962;2022-07-29T00:59:45;1.35;;;1.23;;
45812;SDS011;31519;45.408;10.962;2022-07-29T01:02:13;4.43;;;1.77;;
45812;SDS011;31519;45.408;10.962;2022-07-29T01:04:41;2.28;;;1.50;;
45812;SDS011;31519;45.408;10.962;2022-07-29T01:07:10;3.55;;;1.75;;
45812;SDS011;31519;45.408;10.962;2022-07-29T01:09:38;3.05;;;1.58;;
45812;SDS011;31519;45.408;10.962;2022-07-29T01:12:15;6.25;;;1.73;;
45812;SDS011;31519;45.408;10.962;2022-07-29T01:14:47;2.20;;;1.75;;
45812;SDS011;31519;45.408;10.962;2022-07-29T01:20:24;3.70;;;1.45;;
45812;SDS011;31519;45.408;10.962;2022-07-29T01:26:30;5.85;;;1.77;;
45812;SDS011;31519;45.408;10.962;2022-07-29T01:29:27;2.00;;;1.70;;
45812;SDS011;31519;45.408;10.962;2022-07-29T01:32:12;2.53;;;1.60;;
45812;SDS011;31519;45.408;10.962;2022-07-29T01:35:02;1.80;;;1.70;;
45812;SDS011;31519;45.408;10.962;2022-07-29T01:37:39;2.88;;;1.75;;
45812;SDS011;31519;45.408;10.962;2022-07-29T01:40:14;4.05;;;1.70;;
45812;SDS011;31519;45.408;10.962;2022-07-29T01:42:46;4.35;;;1.52;;
45812;SDS011;31519;45.408;10.962;2022-07-29T01:48:31;3.42;;;1.70;;
45812;SDS011;31519;45.408;10.962;2022-07-29T01:51:11;2.22;;;1.90;;
45812;SDS011;31519;45.408;10.962;2022-07-29T01:54:06;7.00;;;1.60;;
45812;SDS011;31519;45.408;10.962;2022-07-29T01:56:43;7.50;;;2.33;;
45812;SDS011;31519;45.408;10.962;2022-07-29T01:59:15;3.28;;;1.70;;
45812;SDS011;31519;45.408;10.962;2022-07-29T02:01:45;2.83;;;1.58;;
45812;SDS011;31519;45.408;10.962;2022-07-29T02:04:21;5.25;;;1.80;;
45812;SDS011;31519;45.408;10.962;2022-07-29T02:07:03;4.47;;;1.50;;
45812;SDS011;31519;45.408;10.962;2022-07-29T02:09:34;5.35;;;1.50;;
45812;SDS011;31519;45.408;10.962;2022-07-29T02:12:05;4.85;;;1.58;;
45812;SDS011;31519;45.408;10.962;2022-07-29T02:14:39;4.65;;;1.73;;
45812;SDS011;31519;45.408;10.962;2022-07-29T02:17:12;2.03;;;1.42;;
45812;SDS011;31519;45.408;10.962;2022-07-29T02:19:43;13.95;;;2.13;;
45812;SDS011;31519;45.408;10.962;2022-07-29T02:22:13;1.75;;;1.60;;
45812;SDS011;31519;45.408;10.962;2022-07-29T02:24:44;5.85;;;1.73;;
45812;SDS011;31519;45.408;10.962;2022-07-29T02:27:15;4.05;;;2.00;;
45812;SDS011;31519;45.408;10.962;2022-07-29T02:29:46;5.68;;;1.70;;
45812;SDS011;31519;45.408;10.962;2022-07-29T02:32:17;2.97;;;1.85;;
45812;SDS011;31519;45.408;10.962;2022-07-29T02:34:47;5.15;;;2.00;;
45812;SDS011;31519;45.408;10.962;2022-07-29T02:37:17;12.07;;;2.20;;
45812;SDS011;31519;45.408;10.962;2022-07-29T02:39:46;3.65;;;2.25;;
45812;SDS011;31519;45.408;10.962;2022-07-29T02:42:16;3.75;;;2.35;;
45812;SDS011;31519;45.408;10.962;2022-07-29T02:44:46;4.85;;;2.05;;
45812;SDS011;31519;45.408;10.962;2022-07-29T02:47:21;12.25;;;2.00;;
45812;SDS011;31519;45.408;10.962;2022-07-29T02:55:30;2.28;;;1.40;;
45812;SDS011;31519;45.408;10.962;2022-07-29T02:58:03;2.35;;;1.55;;
45812;SDS011;31519;45.408;10.962;2022-07-29T03:00:36;4.07;;;1.75;;
45812;SDS011;31519;45.408;10.962;2022-07-29T03:03:07;2.17;;;1.98;;
45812;SDS011;31519;45.408;10.962;2022-07-29T03:05:38;7.22;;;2.95;;
45812;SDS011;31519;45.408;10.962;2022-07-29T03:08:09;10.13;;;2.17;;
45812;SDS011;31519;45.408;10.962;2022-07-29T03:10:39;2.67;;;2.00;;
45812;SDS011;31519;45.408;10.962;2022-07-29T03:13:13;6.63;;;1.55;;
45812;SDS011;31519;45.408;10.962;2022-07-29T03:15:42;1.92;;;1.65;;
45812;SDS011;31519;45.408;10.962;2022-07-29T03:18:12;4.03;;;1.65;;
45812;SDS011;31519;45.408;10.962;2022-07-29T03:20:42;4.25;;;2.00;;
45812;SDS011;31519;45.408;10.962;2022-07-29T03:23:10;6.95;;;1.58;;
45812;SDS011;31519;45.408;10.962;2022-07-29T03:25:38;6.00;;;2.03;;
45812;SDS011;31519;45.408;10.962;2022-07-29T03:28:07;5.70;;;1.73;;
45812;SDS011;31519;45.408;10.962;2022-07-29T03:30:36;5.97;;;2.10;;
45812;SDS011;31519;45.408;10.962;2022-07-29T03:33:05;4.43;;;1.50;;
45812;SDS011;31519;45.408;10.962;2022-07-29T03:35:40;1.73;;;1.30;;
45812;SDS011;31519;45.408;10.962;2022-07-29T03:38:09;4.25;;;1.75;;
45812;SDS011;31519;45.408;10.962;2022-07-29T03:40:40;4.95;;;2.00;;
45812;SDS011;31519;45.408;10.962;2022-07-29T03:43:14;3.47;;;1.58;;
45812;SDS011;31519;45.408;10.962;2022-07-29T03:45:45;5.90;;;1.70;;
45812;SDS011;31519;45.408;10.962;2022-07-29T03:48:17;2.10;;;1.60;;
45812;SDS011;31519;45.408;10.962;2022-07-29T03:50:49;2.42;;;1.80;;
45812;SDS011;31519;45.408;10.962;2022-07-29T03:53:18;3.33;;;1.92;;
45812;SDS011;31519;45.408;10.962;2022-07-29T03:55:48;4.35;;;1.80;;
45812;SDS011;31519;45.408;10.962;2022-07-29T03:58:21;5.82;;;2.00;;
45812;SDS011;31519;45.408;10.962;2022-07-29T04:00:50;3.17;;;1.67;;
45812;SDS011;31519;45.408;10.962;2022-07-29T04:03:19;3.97;;;2.13;;
45812;SDS011;31519;45.408;10.962;2022-07-29T04:05:59;3.55;;;1.80;;
45812;SDS011;31519;45.408;10.962;2022-07-29T04:08:28;6.32;;;2.50;;
45812;SDS011;31519;45.408;10.962;2022-07-29T04:10:56;3.13;;;2.17;;
45812;SDS011;31519;45.408;10.962;2022-07-29T04:13:25;2.67;;;1.63;;
45812;SDS011;31519;45.408;10.962;2022-07-29T04:15:53;2.55;;;1.88;;
45812;SDS011;31519;45.408;10.962;2022-07-29T04:18:22;11.52;;;2.13;;
45812;SDS011;31519;45.408;10.962;2022-07-29T04:20:51;5.18;;;1.85;;
45812;SDS011;31519;45.408;10.962;2022-07-29T04:23:19;7.40;;;2.08;;
45812;SDS011;31519;45.408;10.962;2022-07-29T04:25:47;5.05;;;2.08;;
45812;SDS011;31519;45.408;10.962;2022-07-29T04:28:15;3.80;;;2.05;;
45812;SDS011;31519;45.408;10.962;2022-07-29T04:30:44;2.53;;;1.75;;
45812;SDS011;31519;45.408;10.962;2022-07-29T04:33:12;4.32;;;1.83;;
45812;SDS011;31519;45.408;10.962;2022-07-29T04:35:40;6.95;;;2.20;;
45812;SDS011;31519;45.408;10.962;2022-07-29T04:38:17;2.55;;;1.90;;
45812;SDS011;31519;45.408;10.962;2022-07-29T04:40:45;4.15;;;2.13;;
45812;SDS011;31519;45.408;10.962;2022-07-29T04:43:16;5.72;;;2.00;;
45812;SDS011;31519;45.408;10.962;2022-07-29T04:45:49;3.20;;;1.80;;
45812;SDS011;31519;45.408;10.962;2022-07-29T04:48:18;2.47;;;2.28;;
45812;SDS011;31519;45.408;10.962;2022-07-29T04:50:50;4.88;;;2.75;;
45812;SDS011;31519;45.408;10.962;2022-07-29T04:53:18;7.13;;;3.22;;
45812;SDS011;31519;45.408;10.962;2022-07-29T04:55:47;5.88;;;3.53;;
45812;SDS011;31519;45.408;10.962;2022-07-29T04:58:15;6.95;;;5.20;;
45812;SDS011;31519;45.408;10.962;2022-07-29T05:00:43;8.27;;;5.05;;
45812;SDS011;31519;45.408;10.962;2022-07-29T05:03:12;8.13;;;5.13;;
45812;SDS011;31519;45.408;10.962;2022-07-29T05:05:40;14.05;;;5.07;;
45812;SDS011;31519;45.408;10.962;2022-07-29T05:08:09;9.25;;;4.35;;
45812;SDS011;31519;45.408;10.962;2022-07-29T05:10:37;8.90;;;5.03;;
45812;SDS011;31519;45.408;10.962;2022-07-29T05:13:06;8.10;;;4.07;;
45812;SDS011;31519;45.408;10.962;2022-07-29T05:15:35;6.65;;;3.83;;
45812;SDS011;31519;45.408;10.962;2022-07-29T05:18:04;9.85;;;4.07;;
45812;SDS011;31519;45.408;10.962;2022-07-29T05:20:33;10.32;;;3.33;;
45812;SDS011;31519;45.408;10.962;2022-07-29T05:23:02;6.28;;;3.10;;
45812;SDS011;31519;45.408;10.962;2022-07-29T05:25:31;8.95;;;3.67;;
45812;SDS011;31519;45.408;10.962;2022-07-29T05:28:11;6.43;;;3.42;;
45812;SDS011;31519;45.408;10.962;2022-07-29T05:30:40;11.82;;;4.68;;
45812;SDS011;31519;45.408;10.962;2022-07-29T05:33:08;11.63;;;3.78;;
45812;SDS011;31519;45.408;10.962;2022-07-29T05:35:57;7.75;;;3.33;;
45812;SDS011;31519;45.408;10.962;2022-07-29T05:38:27;11.50;;;3.17;;
45812;SDS011;31519;45.408;10.962;2022-07-29T05:40:58;6.35;;;3.65;;
45812;SDS011;31519;45.408;10.962;2022-07-29T05:43:28;8.30;;;4.68;;
45812;SDS011;31519;45.408;10.962;2022-07-29T05:45:56;7.38;;;4.03;;
45812;SDS011;31519;45.408;10.962;2022-07-29T05:48:25;10.20;;;4.00;;
45812;SDS011;31519;45.408;10.962;2022-07-29T05:50:54;7.13;;;3.45;;
45812;SDS011;31519;45.408;10.962;2022-07-29T05:53:22;7.55;;;3.10;;
45812;SDS011;31519;45.408;10.962;2022-07-29T05:55:51;8.38;;;3.35;;
45812;SDS011;31519;45.408;10.962;2022-07-29T05:58:19;13.93;;;3.88;;
45812;SDS011;31519;45.408;10.962;2022-07-29T06:00:48;5.38;;;2.92;;
45812;SDS011;31519;45.408;10.962;2022-07-29T06:03:17;11.98;;;3.58;;
45812;SDS011;31519;45.408;10.962;2022-07-29T06:05:45;4.82;;;3.25;;
45812;SDS011;31519;45.408;10.962;2022-07-29T06:08:13;6.53;;;3.03;;
45812;SDS011;31519;45.408;10.962;2022-07-29T06:10:41;8.82;;;3.10;;
45812;SDS011;31519;45.408;10.962;2022-07-29T06:13:10;7.53;;;3.30;;
45812;SDS011;31519;45.408;10.962;2022-07-29T06:15:38;2.83;;;2.47;;
45812;SDS011;31519;45.408;10.962;2022-07-29T06:18:06;7.45;;;2.80;;
45812;SDS011;31519;45.408;10.962;2022-07-29T06:20:37;7.13;;;2.80;;
45812;SDS011;31519;45.408;10.962;2022-07-29T06:23:05;6.20;;;3.88;;
45812;SDS011;31519;45.408;10.962;2022-07-29T06:25:34;7.00;;;3.95;;
45812;SDS011;31519;45.408;10.962;2022-07-29T06:28:04;8.63;;;3.65;;
45812;SDS011;31519;45.408;10.962;2022-07-29T06:30:32;7.05;;;3.65;;
45812;SDS011;31519;45.408;10.962;2022-07-29T06:33:00;2.90;;;2.35;;
45812;SDS011;31519;45.408;10.962;2022-07-29T06:35:29;4.97;;;3.47;;
45812;SDS011;31519;45.408;10.962;2022-07-29T06:38:09;15.13;;;4.20;;
45812;SDS011;31519;45.408;10.962;2022-07-29T06:40:58;8.32;;;4.45;;
45812;SDS011;31519;45.408;10.962;2022-07-29T06:43:38;11.15;;;4.63;;
45812;SDS011;31519;45.408;10.962;2022-07-29T06:46:19;13.05;;;5.13;;
45812;SDS011;31519;45.408;10.962;2022-07-29T06:48:49;11.52;;;5.30;;
45812;SDS011;31519;45.408;10.962;2022-07-29T06:51:20;14.15;;;5.00;;
45812;SDS011;31519;45.408;10.962;2022-07-29T06:53:51;7.88;;;4.70;;
45812;SDS011;31519;45.408;10.962;2022-07-29T06:56:26;13.23;;;4.30;;
45812;SDS011;31519;45.408;10.962;2022-07-29T06:58:54;11.52;;;4.70;;
45812;SDS011;31519;45.408;10.962;2022-07-29T07:01:23;11.25;;;4.65;;
45812;SDS011;31519;45.408;10.962;2022-07-29T07:03:51;9.43;;;5.32;;
45812;SDS011;31519;45.408;10.962;2022-07-29T07:06:19;10.35;;;4.07;;
45812;SDS011;31519;45.408;10.962;2022-07-29T07:08:48;15.55;;;5.68;;
45812;SDS011;31519;45.408;10.962;2022-07-29T07:11:16;8.85;;;4.90;;
45812;SDS011;31519;45.408;10.962;2022-07-29T07:13:44;13.98;;;5.72;;
45812;SDS011;31519;45.408;10.962;2022-07-29T07:16:12;9.15;;;4.57;;
45812;SDS011;31519;45.408;10.962;2022-07-29T07:18:41;15.07;;;5.07;;
45812;SDS011;31519;45.408;10.962;2022-07-29T07:21:09;12.38;;;5.10;;
45812;SDS011;31519;45.408;10.962;2022-07-29T07:23:45;12.90;;;5.40;;
45812;SDS011;31519;45.408;10.962;2022-07-29T07:26:15;9.52;;;4.35;;
45812;SDS011;31519;45.408;10.962;2022-07-29T07:28:43;7.03;;;4.68;;
45812;SDS011;31519;45.408;10.962;2022-07-29T07:31:11;9.35;;;4.47;;
45812;SDS011;31519;45.408;10.962;2022-07-29T07:33:39;8.43;;;3.92;;
45812;SDS011;31519;45.408;10.962;2022-07-29T07:36:08;6.28;;;3.40;;
45812;SDS011;31519;45.408;10.962;2022-07-29T07:38:36;7.88;;;3.85;;
45812;SDS011;31519;45.408;10.962;2022-07-29T07:41:04;7.00;;;3.25;;
45812;SDS011;31519;45.408;10.962;2022-07-29T07:43:33;8.55;;;3.60;;
45812;SDS011;31519;45.408;10.962;2022-07-29T07:46:01;8.05;;;3.28;;
45812;SDS011;31519;45.408;10.962;2022-07-29T07:48:30;9.27;;;2.97;;
45812;SDS011;31519;45.408;10.962;2022-07-29T07:50:58;5.95;;;3.45;;
45812;SDS011;31519;45.408;10.962;2022-07-29T07:53:26;11.07;;;3.53;;
45812;SDS011;31519;45.408;10.962;2022-07-29T07:55:59;12.93;;;3.22;;
45812;SDS011;31519;45.408;10.962;2022-07-29T07:58:38;6.90;;;2.67;;
45812;SDS011;31519;45.408;10.962;2022-07-29T08:01:07;11.00;;;3.72;;
45812;SDS011;31519;45.408;10.962;2022-07-29T08:03:37;12.57;;;3.83;;
45812;SDS011;31519;45.408;10.962;2022-07-29T08:06:07;10.27;;;4.07;;
45812;SDS011;31519;45.408;10.962;2022-07-29T08:08:35;10.68;;;3.22;;
45812;SDS011;31519;45.408;10.962;2022-07-29T08:11:03;7.40;;;3.33;;
45812;SDS011;31519;45.408;10.962;2022-07-29T08:13:36;6.10;;;3.55;;
45812;SDS011;31519;45.408;10.962;2022-07-29T08:16:06;12.02;;;2.85;;
45812;SDS011;31519;45.408;10.962;2022-07-29T08:18:41;10.18;;;2.80;;
45812;SDS011;31519;45.408;10.962;2022-07-29T08:21:11;6.60;;;2.40;;
45812;SDS011;31519;45.408;10.962;2022-07-29T08:23:43;10.30;;;2.78;;
45812;SDS011;31519;45.408;10.962;2022-07-29T08:26:28;5.38;;;2.70;;
45812;SDS011;31519;45.408;10.962;2022-07-29T08:28:56;5.00;;;1.90;;
45812;SDS011;31519;45.408;10.962;2022-07-29T08:31:24;10.57;;;3.08;;
45812;SDS011;31519;45.408;10.962;2022-07-29T08:33:52;8.52;;;3.22;;
45812;SDS011;31519;45.408;10.962;2022-07-29T08:36:23;4.43;;;2.35;;
45812;SDS011;31519;45.408;10.962;2022-07-29T08:38:52;4.85;;;2.40;;
45812;SDS011;31519;45.408;10.962;2022-07-29T08:41:20;3.65;;;2.15;;
45812;SDS011;31519;45.408;10.962;2022-07-29T08:43:50;6.38;;;2.78;;
45812;SDS011;31519;45.408;10.962;2022-07-29T08:46:19;10.45;;;2.90;;
45812;SDS011;31519;45.408;10.962;2022-07-29T08:48:49;4.57;;;2.25;;
45812;SDS011;31519;45.408;10.962;2022-07-29T08:51:19;4.82;;;2.90;;
45812;SDS011;31519;45.408;10.962;2022-07-29T08:53:49;6.60;;;3.20;;
45812;SDS011;31519;45.408;10.962;2022-07-29T08:56:18;8.68;;;3.17;;
45812;SDS011;31519;45.408;10.962;2022-07-29T08:58:47;11.75;;;3.53;;
45812;SDS011;31519;45.408;10.962;2022-07-29T09:01:22;7.43;;;2.90;;
45812;SDS011;31519;45.408;10.962;2022-07-29T09:04:03;12.73;;;3.75;;
45812;SDS011;31519;45.408;10.962;2022-07-29T09:06:34;11.88;;;3.33;;
45812;SDS011;31519;45.408;10.962;2022-07-29T09:09:04;7.50;;;3.53;;
45812;SDS011;31519;45.408;10.962;2022-07-29T09:11:32;7.10;;;3.60;;
45812;SDS011;31519;45.408;10.962;2022-07-29T09:14:01;6.20;;;3.20;;
45812;SDS011;31519;45.408;10.962;2022-07-29T09:19:28;8.70;;;3.50;;
45812;SDS011;31519;45.408;10.962;2022-07-29T09:21:59;8.48;;;2.97;;
45812;SDS011;31519;45.408;10.962;2022-07-29T09:27:03;4.53;;;3.00;;
45812;SDS011;31519;45.408;10.962;2022-07-29T09:32:33;7.97;;;3.10;;
45812;SDS011;31519;45.408;10.962;2022-07-29T09:35:21;7.30;;;2.97;;
45812;SDS011;31519;45.408;10.962;2022-07-29T09:37:51;7.38;;;3.50;;
45812;SDS011;31519;45.408;10.962;2022-07-29T09:40:24;8.85;;;3.65;;
45812;SDS011;31519;45.408;10.962;2022-07-29T09:42:56;8.90;;;3.60;;
45812;SDS011;31519;45.408;10.962;2022-07-29T09:45:29;5.43;;;3.40;;
45812;SDS011;31519;45.408;10.962;2022-07-29T09:48:00;8.85;;;3.47;;
45812;SDS011;31519;45.408;10.962;2022-07-29T09:50:45;9.05;;;3.58;;
45812;SDS011;31519;45.408;10.962;2022-07-29T09:53:33;7.38;;;3.33;;
45812;SDS011;31519;45.408;10.962;2022-07-29T09:56:04;6.80;;;3.67;;
45812;SDS011;31519;45.408;10.962;2022-07-29T09:58:33;8.57;;;3.17;;
45812;SDS011;31519;45.408;10.962;2022-07-29T10:01:02;9.73;;;3.30;;
45812;SDS011;31519;45.408;10.962;2022-07-29T10:03:31;10.95;;;3.42;;
45812;SDS011;31519;45.408;10.962;2022-07-29T10:06:10;12.90;;;3.67;;
45812;SDS011;31519;45.408;10.962;2022-07-29T10:08:41;4.90;;;3.53;;
45812;SDS011;31519;45.408;10.962;2022-07-29T10:11:14;5.18;;;2.97;;
45812;SDS011;31519;45.408;10.962;2022-07-29T10:13:47;4.80;;;2.60;;
45812;SDS011;31519;45.408;10.962;2022-07-29T10:16:16;7.97;;;3.17;;
45812;SDS011;31519;45.408;10.962;2022-07-29T10:18:45;9.35;;;3.45;;
45812;SDS011;31519;45.408;10.962;2022-07-29T10:21:14;5.70;;;3.50;;
45812;SDS011;31519;45.408;10.962;2022-07-29T10:24:02;6.72;;;3.00;;
45812;SDS011;31519;45.408;10.962;2022-07-29T10:26:32;5.05;;;2.85;;
45812;SDS011;31519;45.408;10.962;2022-07-29T10:29:01;5.07;;;2.80;;
45812;SDS011;31519;45.408;10.962;2022-07-29T10:31:33;11.13;;;3.63;;
45812;SDS011;31519;45.408;10.962;2022-07-29T10:34:14;7.70;;;4.13;;
45812;SDS011;31519;45.408;10.962;2022-07-29T10:45:02;5.43;;;3.05;;
45812;SDS011;31519;45.408;10.962;2022-07-29T10:47:32;7.82;;;3.58;;
45812;SDS011;31519;45.408;10.962;2022-07-29T10:50:03;4.90;;;3.25;;
45812;SDS011;31519;45.408;10.962;2022-07-29T10:55:36;5.93;;;2.90;;
45812;SDS011;31519;45.408;10.962;2022-07-29T10:58:19;7.32;;;3.70;;
45812;SDS011;31519;45.408;10.962;2022-07-29T11:00:53;6.97;;;3.45;;
45812;SDS011;31519;45.408;10.962;2022-07-29T11:06:18;4.25;;;3.03;;
45812;SDS011;31519;45.408;10.962;2022-07-29T11:15:12;9.00;;;3.28;;
45812;SDS011;31519;45.408;10.962;2022-07-29T11:20:45;3.42;;;2.70;;
45812;SDS011;31519;45.408;10.962;2022-07-29T11:37:15;8.48;;;2.80;;
45812;SDS011;31519;45.408;10.962;2022-07-29T11:45:00;6.53;;;2.90;;
45812;SDS011;31519;45.408;10.962;2022-07-29T11:47:54;6.93;;;2.83;;
45812;SDS011;31519;45.408;10.962;2022-07-29T11:50:45;9.53;;;3.13;;
45812;SDS011;31519;45.408;10.962;2022-07-29T11:53:34;5.63;;;2.63;;
45812;SDS011;31519;45.408;10.962;2022-07-29T11:56:03;12.15;;;2.70;;
45812;SDS011;31519;45.408;10.962;2022-07-29T11:58:36;10.40;;;3.25;;
45812;SDS011;31519;45.408;10.962;2022-07-29T12:01:06;5.13;;;3.20;;
45812;SDS011;31519;45.408;10.962;2022-07-29T12:03:35;8.82;;;2.85;;
45812;SDS011;31519;45.408;10.962;2022-07-29T12:06:10;12.63;;;3.20;;
45812;SDS011;31519;45.408;10.962;2022-07-29T12:08:45;12.32;;;3.42;;
45812;SDS011;31519;45.408;10.962;2022-07-29T12:11:15;9.73;;;3.20;;
45812;SDS011;31519;45.408;10.962;2022-07-29T12:13:50;4.75;;;3.03;;
45812;SDS011;31519;45.408;10.962;2022-07-29T12:16:20;3.90;;;2.92;;
45812;SDS011;31519;45.408;10.962;2022-07-29T12:18:57;7.90;;;3.30;;
45812;SDS011;31519;45.408;10.962;2022-07-29T12:21:26;6.50;;;2.78;;
45812;SDS011;31519;45.408;10.962;2022-07-29T12:23:56;5.85;;;2.83;;
45812;SDS011;31519;45.408;10.962;2022-07-29T12:26:35;6.47;;;2.97;;
45812;SDS011;31519;45.408;10.962;2022-07-29T12:29:06;6.43;;;2.78;;
45812;SDS011;31519;45.408;10.962;2022-07-29T12:31:42;8.30;;;3.08;;
45812;SDS011;31519;45.408;10.962;2022-07-29T12:34:12;8.20;;;3.40;;
45812;SDS011;31519;45.408;10.962;2022-07-29T12:36:42;6.07;;;2.95;;
45812;SDS011;31519;45.408;10.962;2022-07-29T12:39:11;6.60;;;3.00;;
45812;SDS011;31519;45.408;10.962;2022-07-29T12:41:40;4.78;;;2.75;;
45812;SDS011;31519;45.408;10.962;2022-07-29T12:44:08;5.20;;;2.67;;
45812;SDS011;31519;45.408;10.962;2022-07-29T12:46:37;10.32;;;2.83;;
45812;SDS011;31519;45.408;10.962;2022-07-29T12:49:06;5.00;;;2.50;;
45812;SDS011;31519;45.408;10.962;2022-07-29T12:51:35;3.60;;;2.70;;
45812;SDS011;31519;45.408;10.962;2022-07-29T12:54:10;4.15;;;2.88;;
45812;SDS011;31519;45.408;10.962;2022-07-29T12:56:41;6.22;;;2.85;;
45812;SDS011;31519;45.408;10.962;2022-07-29T13:01:45;7.88;;;2.28;;
45812;SDS011;31519;45.408;10.962;2022-07-29T13:04:29;7.95;;;2.78;;
45812;SDS011;31519;45.408;10.962;2022-07-29T13:07:04;5.95;;;2.40;;
45812;SDS011;31519;45.408;10.962;2022-07-29T13:09:38;9.38;;;2.80;;
45812;SDS011;31519;45.408;10.962;2022-07-29T13:12:12;6.95;;;2.50;;
45812;SDS011;31519;45.408;10.962;2022-07-29T13:14:42;12.52;;;2.80;;
45812;SDS011;31519;45.408;10.962;2022-07-29T13:17:18;5.35;;;2.83;;
45812;SDS011;31519;45.408;10.962;2022-07-29T13:19:51;7.63;;;2.92;;
45812;SDS011;31519;45.408;10.962;2022-07-29T13:22:22;9.45;;;2.70;;
45812;SDS011;31519;45.408;10.962;2022-07-29T13:24:52;8.50;;;2.65;;
45812;SDS011;31519;45.408;10.962;2022-07-29T13:27:26;11.63;;;2.65;;
45812;SDS011;31519;45.408;10.962;2022-07-29T13:30:00;7.03;;;2.65;;
45812;SDS011;31519;45.408;10.962;2022-07-29T13:32:30;7.68;;;3.03;;
45812;SDS011;31519;45.408;10.962;2022-07-29T13:34:59;3.65;;;3.03;;
45812;SDS011;31519;45.408;10.962;2022-07-29T13:37:32;3.10;;;2.70;;
45812;SDS011;31519;45.408;10.962;2022-07-29T13:40:02;7.82;;;3.40;;
45812;SDS011;31519;45.408;10.962;2022-07-29T13:42:31;3.58;;;2.90;;
45812;SDS011;31519;45.408;10.962;2022-07-29T13:45:00;4.50;;;2.95;;
45812;SDS011;31519;45.408;10.962;2022-07-29T13:47:30;4.32;;;2.78;;
45812;SDS011;31519;45.408;10.962;2022-07-29T13:50:00;9.82;;;2.83;;
45812;SDS011;31519;45.408;10.962;2022-07-29T13:52:29;4.53;;;2.72;;
45812;SDS011;31519;45.408;10.962;2022-07-29T13:54:57;2.97;;;2.70;;
45812;SDS011;31519;45.408;10.962;2022-07-29T13:57:26;9.07;;;2.78;;
45812;SDS011;31519;45.408;10.962;2022-07-29T13:59:56;9.63;;;2.75;;
45812;SDS011;31519;45.408;10.962;2022-07-29T14:02:24;6.68;;;3.03;;
45812;SDS011;31519;45.408;10.962;2022-07-29T14:04:53;8.82;;;3.15;;
45812;SDS011;31519;45.408;10.962;2022-07-29T14:07:22;6.03;;;2.83;;
45812;SDS011;31519;45.408;10.962;2022-07-29T14:09:51;5.97;;;3.05;;
45812;SDS011;31519;45.408;10.962;2022-07-29T14:12:19;10.00;;;4.35;;
45812;SDS011;31519;45.408;10.962;2022-07-29T14:14:48;5.10;;;3.15;;
45812;SDS011;31519;45.408;10.962;2022-07-29T14:17:16;3.90;;;2.88;;
45812;SDS011;31519;45.408;10.962;2022-07-29T14:19:45;8.98;;;2.92;;
45812;SDS011;31519;45.408;10.962;2022-07-29T14:22:13;5.35;;;3.20;;
45812;SDS011;31519;45.408;10.962;2022-07-29T14:27:43;5.60;;;2.65;;
45812;SDS011;31519;45.408;10.962;2022-07-29T14:30:11;7.68;;;3.35;;
45812;SDS011;31519;45.408;10.962;2022-07-29T14:32:40;6.78;;;3.55;;
45812;SDS011;31519;45.408;10.962;2022-07-29T14:35:08;12.52;;;3.38;;
45812;SDS011;31519;45.408;10.962;2022-07-29T14:37:38;6.45;;;3.40;;
45812;SDS011;31519;45.408;10.962;2022-07-29T14:40:07;5.43;;;3.17;;
45812;SDS011;31519;45.408;10.962;2022-07-29T14:42:37;4.30;;;3.10;;
45812;SDS011;31519;45.408;10.962;2022-07-29T14:45:06;6.97;;;3.00;;
45812;SDS011;31519;45.408;10.962;2022-07-29T14:47:36;6.18;;;3.17;;
45812;SDS011;31519;45.408;10.962;2022-07-29T14:50:06;5.70;;;3.08;;
45812;SDS011;31519;45.408;10.962;2022-07-29T14:52:35;10.02;;;3.35;;
45812;SDS011;31519;45.408;10.962;2022-07-29T14:55:04;4.70;;;2.97;;
45812;SDS011;31519;45.408;10.962;2022-07-29T14:57:47;3.95;;;3.60;;
45812;SDS011;31519;45.408;10.962;2022-07-29T15:00:16;10.82;;;4.55;;
45812;SDS011;31519;45.408;10.962;2022-07-29T15:02:45;7.78;;;3.53;;
45812;SDS011;31519;45.408;10.962;2022-07-29T15:05:29;8.68;;;3.17;;
45812;SDS011;31519;45.408;10.962;2022-07-29T15:07:59;7.55;;;2.90;;
45812;SDS011;31519;45.408;10.962;2022-07-29T15:10:27;6.88;;;2.97;;
45812;SDS011;31519;45.408;10.962;2022-07-29T15:12:56;12.65;;;2.72;;
45812;SDS011;31519;45.408;10.962;2022-07-29T15:15:24;7.35;;;2.80;;
45812;SDS011;31519;45.408;10.962;2022-07-29T15:17:53;13.55;;;3.05;;
45812;SDS011;31519;45.408;10.962;2022-07-29T15:20:22;9.60;;;3.28;;
45812;SDS011;31519;45.408;10.962;2022-07-29T15:22:53;13.98;;;3.40;;
45812;SDS011;31519;45.408;10.962;2022-07-29T15:25:23;12.40;;;2.97;;
45812;SDS011;31519;45.408;10.962;2022-07-29T15:27:54;5.20;;;2.78;;
45812;SDS011;31519;45.408;10.962;2022-07-29T15:30:30;5.97;;;3.17;;
45812;SDS011;31519;45.408;10.962;2022-07-29T15:33:01;11.75;;;2.88;;
45812;SDS011;31519;45.408;10.962;2022-07-29T15:35:31;5.55;;;3.13;;
45812;SDS011;31519;45.408;10.962;2022-07-29T15:37:59;9.07;;;3.30;;
45812;SDS011;31519;45.408;10.962;2022-07-29T15:40:27;9.80;;;3.55;;
45812;SDS011;31519;45.408;10.962;2022-07-29T15:42:57;12.18;;;3.05;;
45812;SDS011;31519;45.408;10.962;2022-07-29T15:45:37;8.73;;;3.20;;
45812;SDS011;31519;45.408;10.962;2022-07-29T15:48:07;12.38;;;3.08;;
45812;SDS011;31519;45.408;10.962;2022-07-29T15:50:41;10.65;;;3.08;;
45812;SDS011;31519;45.408;10.962;2022-07-29T15:53:13;5.87;;;3.40;;
45812;SDS011;31519;45.408;10.962;2022-07-29T15:55:41;6.05;;;3.00;;
45812;SDS011;31519;45.408;10.962;2022-07-29T15:58:11;7.35;;;3.30;;
45812;SDS011;31519;45.408;10.962;2022-07-29T16:00:39;9.80;;;3.75;;
45812;SDS011;31519;45.408;10.962;2022-07-29T16:03:07;9.02;;;3.47;;
45812;SDS011;31519;45.408;10.962;2022-07-29T16:05:36;4.53;;;3.38;;
45812;SDS011;31519;45.408;10.962;2022-07-29T16:08:05;11.55;;;3.78;;
45812;SDS011;31519;45.408;10.962;2022-07-29T16:10:35;12.07;;;4.03;;